createdAt,value
2023-05-12T00:00:58.004Z,13.00
2023-05-12T00:03:25.097Z,14.87
2023-05-12T00:05:52.321Z,12.83
2023-05-12T00:08:19.324Z,10.87
2023-05-12T00:10:46.034Z,13.83
2023-05-12T00:13:12.854Z,11.47
2023-05-12T00:15:39.751Z,10.23
2023-05-12T00:18:06.607Z,10.30
2023-05-12T00:20:33.430Z,13.27
2023-05-12T00:23:00.219Z,11.67
2023-05-12T00:25:26.974Z,11.03
2023-05-12T00:27:53.714Z,11.13
2023-05-12T00:30:21.448Z,11.43
2023-05-12T00:32:48.548Z,9.97
2023-05-12T00:35:16.469Z,9.30
2023-05-12T00:37:43.602Z,9.50
2023-05-12T00:40:10.991Z,10.67
2023-05-12T00:42:38.217Z,9.37
2023-05-12T00:45:06.426Z,7.67
2023-05-12T00:47:33.954Z,12.43
2023-05-12T00:50:01.030Z,12.20
2023-05-12T00:52:27.996Z,20.07
2023-05-12T00:54:55.240Z,10.80
2023-05-12T00:57:24.160Z,9.73
2023-05-12T00:59:51.704Z,8.57
2023-05-12T01:02:18.490Z,7.67
2023-05-12T01:04:45.568Z,6.60
2023-05-12T01:07:22.700Z,6.67
2023-05-12T01:09:55.653Z,6.57
2023-05-12T01:12:24.175Z,9.43
2023-05-12T01:14:53.793Z,7.43
2023-05-12T01:17:29.649Z,6.97
2023-05-12T01:20:00.368Z,6.77
2023-05-12T01:22:31.424Z,6.73
2023-05-12T01:25:04.477Z,6.40
2023-05-12T01:27:33.199Z,7.17
2023-05-12T01:30:05.727Z,8.67
2023-05-12T01:32:35.851Z,7.93
2023-05-12T01:35:04.021Z,8.23
2023-05-12T01:37:32.806Z,6.27
2023-05-12T01:40:02.663Z,6.17
2023-05-12T01:42:29.705Z,7.07
2023-05-12T01:44:57.065Z,6.40
2023-05-12T01:47:24.160Z,6.00
2023-05-12T01:49:57.709Z,5.60
2023-05-12T01:52:25.526Z,6.03
2023-05-12T01:54:52.456Z,4.93
2023-05-12T01:57:19.344Z,5.10
2023-05-12T01:59:47.062Z,5.10
2023-05-12T02:02:13.948Z,4.83
2023-05-12T02:04:40.922Z,5.60
2023-05-12T02:07:08.213Z,4.70
2023-05-12T02:09:34.969Z,4.83
2023-05-12T02:12:02.618Z,4.60
2023-05-12T02:14:29.957Z,4.70
2023-05-12T02:16:57.216Z,5.17
2023-05-12T02:19:25.808Z,4.90
2023-05-12T02:21:52.824Z,5.27
2023-05-12T02:24:21.764Z,5.47
2023-05-12T02:26:49.093Z,4.90
2023-05-12T02:29:16.077Z,4.73
2023-05-12T02:31:42.951Z,4.87
2023-05-12T02:34:16.175Z,5.03
2023-05-12T02:36:43.048Z,4.47
2023-05-12T02:39:11.616Z,4.00
2023-05-12T02:41:38.740Z,4.40
2023-05-12T02:44:05.734Z,5.03
2023-05-12T02:46:32.827Z,4.37
2023-05-12T02:48:59.652Z,4.57
2023-05-12T02:51:26.441Z,4.83
2023-05-12T02:53:53.712Z,4.17
2023-05-12T02:56:21.250Z,4.30
2023-05-12T02:58:48.273Z,4.33
2023-05-12T03:01:15.045Z,3.90
2023-05-12T03:03:42.261Z,4.00
2023-05-12T03:06:09.617Z,3.93
2023-05-12T03:08:36.752Z,3.93
2023-05-12T03:11:03.559Z,4.37
2023-05-12T03:13:30.414Z,3.77
2023-05-12T03:16:01.788Z,3.63
2023-05-12T03:18:29.953Z,3.23
2023-05-12T03:20:57.006Z,3.07
2023-05-12T03:23:24.819Z,2.90
2023-05-12T03:25:51.735Z,3.27
2023-05-12T03:28:18.670Z,2.80
2023-05-12T03:30:45.488Z,3.13
2023-05-12T03:33:12.313Z,2.93
2023-05-12T03:35:39.340Z,3.37
2023-05-12T03:38:06.547Z,2.80
2023-05-12T03:40:33.696Z,3.07
2023-05-12T03:43:00.513Z,3.33
2023-05-12T03:45:27.291Z,3.30
2023-05-12T03:47:54.476Z,3.30
2023-05-12T03:50:21.837Z,2.90
2023-05-12T03:52:49.544Z,3.80
2023-05-12T03:55:16.304Z,3.07
2023-05-12T03:57:43.320Z,3.10
2023-05-12T04:00:11.628Z,2.80
2023-05-12T04:02:44.004Z,2.90
2023-05-12T04:05:11.031Z,2.70
2023-05-12T04:07:38.404Z,2.90
2023-05-12T04:10:05.576Z,3.27
2023-05-12T04:12:33.056Z,2.57
2023-05-12T04:15:00.354Z,2.70
2023-05-12T04:17:27.270Z,2.40
2023-05-12T04:19:54.482Z,2.87
2023-05-12T04:22:22.853Z,2.80
2023-05-12T04:24:51.260Z,2.47
2023-05-12T04:27:18.839Z,2.50
2023-05-12T04:29:45.763Z,2.60
2023-05-12T04:32:12.797Z,2.53
2023-05-12T04:34:40.024Z,2.40
2023-05-12T04:37:07.096Z,2.50
2023-05-12T04:39:34.319Z,2.90
2023-05-12T04:42:02.382Z,2.70
2023-05-12T04:44:31.486Z,2.80
2023-05-12T04:46:58.268Z,3.27
2023-05-12T04:49:25.416Z,3.23
2023-05-12T04:51:52.397Z,3.57
2023-05-12T04:54:19.208Z,3.30
2023-05-12T04:56:46.268Z,3.50
2023-05-12T04:59:15.842Z,3.30
2023-05-12T05:01:44.014Z,3.40
2023-05-12T05:04:11.090Z,3.23
2023-05-12T05:06:38.432Z,3.27
2023-05-12T05:09:07.539Z,3.17
2023-05-12T05:11:34.427Z,2.73
2023-05-12T05:14:01.772Z,3.10
2023-05-12T05:16:28.820Z,2.80
2023-05-12T05:18:58.173Z,2.87
2023-05-12T05:21:25.470Z,2.67
2023-05-12T05:23:53.502Z,2.87
2023-05-12T05:26:21.658Z,2.70
2023-05-12T05:28:48.907Z,2.83
2023-05-12T05:31:17.174Z,2.47
2023-05-12T05:33:44.887Z,2.83
2023-05-12T05:36:11.942Z,2.30
2023-05-12T05:38:39.339Z,2.27
2023-05-12T05:41:06.534Z,2.20
2023-05-12T05:43:33.307Z,2.30
2023-05-12T05:46:00.160Z,2.10
2023-05-12T05:48:27.100Z,1.93
2023-05-12T05:50:54.659Z,1.87
2023-05-12T05:53:23.191Z,2.20
2023-05-12T05:55:50.501Z,2.00
2023-05-12T05:58:17.488Z,1.90
2023-05-12T06:00:45.776Z,1.90
2023-05-12T06:03:12.934Z,1.80
2023-05-12T06:05:42.337Z,1.60
2023-05-12T06:08:13.295Z,1.53
2023-05-12T06:10:41.084Z,1.50
2023-05-12T06:13:07.987Z,1.43
2023-05-12T06:15:34.869Z,1.50
2023-05-12T06:18:01.741Z,1.23
2023-05-12T06:20:28.670Z,1.40
2023-05-12T06:22:55.774Z,1.37
2023-05-12T06:25:22.735Z,1.33
2023-05-12T06:27:53.470Z,1.20
2023-05-12T06:30:20.575Z,1.27
2023-05-12T06:32:47.413Z,1.10
2023-05-12T06:35:14.210Z,1.27
2023-05-12T06:37:41.372Z,1.30
2023-05-12T06:40:08.505Z,1.40
2023-05-12T06:42:35.365Z,1.48
2023-05-12T06:45:09.956Z,1.75
2023-05-12T06:47:36.746Z,2.30
2023-05-12T06:50:03.762Z,2.03
2023-05-12T06:52:30.481Z,2.35
2023-05-12T06:54:57.259Z,2.37
2023-05-12T06:57:26.411Z,2.30
2023-05-12T06:59:53.653Z,2.60
2023-05-12T07:02:20.486Z,2.50
2023-05-12T07:04:47.202Z,2.58
2023-05-12T07:07:13.990Z,3.08
2023-05-12T07:09:42.528Z,3.50
2023-05-12T07:12:10.231Z,3.67
2023-05-12T07:14:37.316Z,3.20
2023-05-12T07:17:04.074Z,3.60
2023-05-12T07:19:30.931Z,3.03
2023-05-12T07:21:58.883Z,2.35
2023-05-12T07:24:25.782Z,1.95
2023-05-12T07:26:52.533Z,1.42
2023-05-12T07:29:19.347Z,1.40
2023-05-12T07:31:46.253Z,1.50
2023-05-12T07:34:13.105Z,1.50
2023-05-12T07:36:40.501Z,1.35
2023-05-12T07:39:07.206Z,1.10
2023-05-12T07:41:34.575Z,1.10
2023-05-12T07:44:02.445Z,1.00
2023-05-12T07:46:29.289Z,1.15
2023-05-12T07:48:56.054Z,1.00
2023-05-12T07:51:22.851Z,0.80
2023-05-12T07:53:49.632Z,0.82
2023-05-12T07:56:16.347Z,0.70
2023-05-12T07:58:43.843Z,1.08
2023-05-12T08:01:12.038Z,0.93
2023-05-12T08:03:39.472Z,1.00
2023-05-12T08:06:07.384Z,0.80
2023-05-12T08:08:34.841Z,1.33
2023-05-12T08:11:01.566Z,4.00
2023-05-12T08:13:28.358Z,1.00
2023-05-12T08:15:55.955Z,0.70
2023-05-12T08:18:22.782Z,0.60
2023-05-12T08:20:50.401Z,0.60
2023-05-12T08:23:17.650Z,0.65
2023-05-12T08:25:44.677Z,0.60
2023-05-12T08:28:13.063Z,0.50
2023-05-12T08:30:41.004Z,0.70
2023-05-12T08:33:07.875Z,0.80
2023-05-12T08:35:36.169Z,0.70
2023-05-12T08:38:03.128Z,0.65
2023-05-12T08:40:31.961Z,0.60
2023-05-12T08:43:05.662Z,0.57
2023-05-12T08:45:33.166Z,0.82
2023-05-12T08:48:00.997Z,1.08
2023-05-12T08:50:31.209Z,0.95
2023-05-12T08:52:59.037Z,1.02
2023-05-12T08:55:31.849Z,1.20
2023-05-12T08:58:02.490Z,2.60
2023-05-12T09:00:31.266Z,1.77
2023-05-12T09:03:00.151Z,1.63
2023-05-12T09:05:30.039Z,1.70
2023-05-12T09:07:57.872Z,1.55
2023-05-12T09:10:34.962Z,1.65
2023-05-12T09:13:15.963Z,1.15
2023-05-12T09:15:47.483Z,1.30
2023-05-12T09:18:14.454Z,1.40
2023-05-12T09:20:41.811Z,1.50
2023-05-12T09:23:20.364Z,1.73
2023-05-12T09:25:47.197Z,1.40
2023-05-12T09:28:14.585Z,1.55
2023-05-12T09:30:42.992Z,1.60
2023-05-12T09:33:14.221Z,1.80
2023-05-12T09:35:45.951Z,1.58
2023-05-12T09:38:14.853Z,1.73
2023-05-12T09:40:43.444Z,2.35
2023-05-12T09:43:15.144Z,1.92
2023-05-12T09:45:44.370Z,1.90
2023-05-12T09:48:14.365Z,1.70
2023-05-12T09:50:47.739Z,2.20
2023-05-12T09:53:17.956Z,1.88
2023-05-12T09:55:45.918Z,1.17
2023-05-12T09:58:16.009Z,0.90
2023-05-12T10:01:12.640Z,1.00
2023-05-12T10:03:32.248Z,1.20
2023-05-12T10:06:02.749Z,1.08
2023-05-12T10:08:53.029Z,1.17
2023-05-12T10:11:22.445Z,1.40
2023-05-12T10:13:49.224Z,1.20
2023-05-12T10:16:16.558Z,1.05
2023-05-12T10:18:46.983Z,1.38
2023-05-12T10:21:15.893Z,1.55
2023-05-12T10:23:44.547Z,1.63
2023-05-12T10:26:12.246Z,1.23
2023-05-12T10:28:38.961Z,0.90
2023-05-12T10:31:07.357Z,1.20
2023-05-12T10:33:34.157Z,1.10
2023-05-12T10:36:01.192Z,1.17
2023-05-12T10:38:36.473Z,0.73
2023-05-12T10:41:06.497Z,1.00
2023-05-12T10:43:46.789Z,0.95
2023-05-12T10:46:17.931Z,0.93
2023-05-12T10:49:07.297Z,1.13
2023-05-12T10:51:43.644Z,0.70
2023-05-12T10:54:12.781Z,1.08
2023-05-12T10:56:39.773Z,1.00
2023-05-12T10:59:14.020Z,0.90
2023-05-12T11:02:04.068Z,0.70
2023-05-12T11:04:59.103Z,1.10
2023-05-12T11:07:30.669Z,0.90
2023-05-12T11:10:05.502Z,0.80
2023-05-12T11:12:37.688Z,0.90
2023-05-12T11:15:06.380Z,1.75
2023-05-12T11:17:33.338Z,0.80
2023-05-12T11:20:01.389Z,0.90
2023-05-12T11:22:29.182Z,0.80
2023-05-12T11:24:56.540Z,0.80
2023-05-12T11:27:24.161Z,1.05
2023-05-12T11:30:04.349Z,1.00
2023-05-12T11:32:31.498Z,0.80
2023-05-12T11:35:11.802Z,0.80
2023-05-12T11:37:40.328Z,0.73
2023-05-12T11:40:18.608Z,0.80
2023-05-12T11:42:48.875Z,0.80
2023-05-12T11:45:34.061Z,0.63
2023-05-12T11:48:13.378Z,0.80
2023-05-12T11:50:47.615Z,0.40
2023-05-12T11:53:17.369Z,0.90
2023-05-12T11:55:55.819Z,0.90
2023-05-12T11:58:27.046Z,0.80
2023-05-12T12:00:55.149Z,0.63
2023-05-12T12:03:22.227Z,0.70
2023-05-12T12:06:01.334Z,0.73
2023-05-12T12:08:28.520Z,0.50
2023-05-12T12:10:55.661Z,0.73
2023-05-12T12:13:24.952Z,0.70
2023-05-12T12:15:52.857Z,0.60
2023-05-12T12:18:19.725Z,0.60
2023-05-12T12:20:47.408Z,0.90
2023-05-12T12:23:14.687Z,0.80
2023-05-12T12:25:41.429Z,0.70
2023-05-12T12:28:09.071Z,1.15
2023-05-12T12:30:35.821Z,0.70
2023-05-12T12:33:02.600Z,0.85
2023-05-12T12:35:29.927Z,0.80
2023-05-12T12:37:57.367Z,1.05
2023-05-12T12:40:24.077Z,0.70
2023-05-12T12:42:50.957Z,0.80
2023-05-12T12:45:20.271Z,0.80
2023-05-12T12:47:47.785Z,1.00
2023-05-12T12:50:14.995Z,1.17
2023-05-12T12:52:41.824Z,1.10
2023-05-12T12:55:10.030Z,1.30
2023-05-12T12:57:36.883Z,1.20
2023-05-12T13:00:05.615Z,1.80
2023-05-12T13:02:33.608Z,1.30
2023-05-12T13:05:06.091Z,1.58
2023-05-12T13:07:33.510Z,1.60
2023-05-12T13:10:00.515Z,2.00
2023-05-12T13:12:29.377Z,1.67
2023-05-12T13:14:56.144Z,1.98
2023-05-12T13:17:23.417Z,1.38
2023-05-12T13:19:50.198Z,1.50
2023-05-12T13:22:16.872Z,1.42
2023-05-12T13:24:44.443Z,1.35
2023-05-12T13:27:11.125Z,1.98
2023-05-12T13:29:38.008Z,1.58
2023-05-12T13:32:04.960Z,2.00
2023-05-12T13:34:31.791Z,1.50
2023-05-12T13:36:59.443Z,1.58
2023-05-12T13:39:26.231Z,1.65
2023-05-12T13:41:53.100Z,1.80
2023-05-12T13:44:19.855Z,1.90
2023-05-12T13:46:47.033Z,1.77
2023-05-12T13:49:14.713Z,1.60
2023-05-12T13:51:41.513Z,1.83
2023-05-12T13:54:08.308Z,1.67
2023-05-12T13:56:35.018Z,1.67
2023-05-12T13:59:01.976Z,1.88
2023-05-12T14:01:29.506Z,1.33
2023-05-12T14:03:56.297Z,1.52
2023-05-12T14:06:23.268Z,1.67
2023-05-12T14:08:50.046Z,2.67
2023-05-12T14:11:17.181Z,3.80
2023-05-12T14:13:44.779Z,5.65
2023-05-12T14:16:15.013Z,5.85
2023-05-12T14:18:43.470Z,5.65
2023-05-12T14:21:10.880Z,5.97
2023-05-12T14:23:37.835Z,5.57
2023-05-12T14:26:05.077Z,5.78
2023-05-12T14:28:31.928Z,5.80
2023-05-12T14:30:59.545Z,6.65
2023-05-12T14:33:27.202Z,7.03
2023-05-12T14:36:05.818Z,6.88
2023-05-12T14:38:33.756Z,6.13
2023-05-12T14:41:00.477Z,6.15
2023-05-12T14:43:27.231Z,6.32
2023-05-12T14:45:57.737Z,7.65
2023-05-12T14:48:27.684Z,7.90
2023-05-12T14:50:55.752Z,7.25
2023-05-12T14:53:23.443Z,7.85
2023-05-12T14:55:51.033Z,7.03
2023-05-12T14:58:18.778Z,7.53
2023-05-12T15:00:45.688Z,7.57
2023-05-12T15:03:13.871Z,8.15
2023-05-12T15:06:01.814Z,6.65
2023-05-12T15:08:27.692Z,8.05
2023-05-12T15:10:54.436Z,7.55
2023-05-12T15:13:22.771Z,7.40
2023-05-12T15:15:50.982Z,8.52
2023-05-12T15:18:19.713Z,7.70
2023-05-12T15:20:46.800Z,7.50
2023-05-12T15:23:14.171Z,6.93
2023-05-12T15:25:41.771Z,7.97
2023-05-12T15:28:08.521Z,8.60
2023-05-12T15:30:36.139Z,7.22
2023-05-12T15:33:06.186Z,7.75
2023-05-12T15:35:33.870Z,8.25
2023-05-12T15:38:00.729Z,8.32
2023-05-12T15:40:27.470Z,8.32
2023-05-12T15:42:54.412Z,8.27
2023-05-12T15:45:21.294Z,9.48
2023-05-12T15:47:48.234Z,8.55
2023-05-12T15:50:19.871Z,8.52
2023-05-12T15:52:47.445Z,8.95
2023-05-12T15:55:14.580Z,9.70
2023-05-12T15:57:41.401Z,9.52
2023-05-12T16:00:08.740Z,9.63
2023-05-12T16:02:41.374Z,8.60
2023-05-12T16:05:09.779Z,8.27
2023-05-12T16:07:36.675Z,8.52
2023-05-12T16:10:03.803Z,9.20
2023-05-12T16:12:31.247Z,8.87
2023-05-12T16:14:58.015Z,9.07
2023-05-12T16:17:24.843Z,8.13
2023-05-12T16:19:53.547Z,9.15
2023-05-12T16:22:20.364Z,9.35
2023-05-12T16:24:47.651Z,9.95
2023-05-12T16:27:15.316Z,10.73
2023-05-12T16:29:46.095Z,10.40
2023-05-12T16:32:13.013Z,9.35
2023-05-12T16:34:39.929Z,10.35
2023-05-12T16:37:06.678Z,10.57
2023-05-12T16:39:35.766Z,10.45
2023-05-12T16:42:03.355Z,11.88
2023-05-12T16:44:30.253Z,11.38
2023-05-12T16:46:57.132Z,11.35
2023-05-12T16:49:23.883Z,10.40
2023-05-12T16:51:50.637Z,10.45
2023-05-12T16:54:18.643Z,10.82
2023-05-12T16:56:45.485Z,9.60
2023-05-12T16:59:12.167Z,10.57
2023-05-12T17:01:39.645Z,9.80
2023-05-12T17:04:07.960Z,10.00
2023-05-12T17:06:35.081Z,9.27
2023-05-12T17:09:02.109Z,9.57
2023-05-12T17:11:28.882Z,11.17
2023-05-12T17:13:55.896Z,9.67
2023-05-12T17:16:22.928Z,10.00
2023-05-12T17:21:19.598Z,9.77
2023-05-12T17:23:47.273Z,10.60
2023-05-12T17:26:14.584Z,10.30
2023-05-12T17:28:41.561Z,9.10
2023-05-12T17:31:08.651Z,8.83
2023-05-12T17:33:35.669Z,9.80
2023-05-12T17:36:11.698Z,10.80
2023-05-12T17:38:40.581Z,11.93
2023-05-12T17:41:07.292Z,9.90
2023-05-12T17:43:34.330Z,9.40
2023-05-12T17:46:03.469Z,8.90
2023-05-12T17:48:36.315Z,9.68
2023-05-12T17:51:06.689Z,7.63
2023-05-12T17:53:36.305Z,9.90
2023-05-12T17:56:06.504Z,8.80
2023-05-12T17:58:33.739Z,9.00
2023-05-12T18:01:00.780Z,9.17
2023-05-12T18:03:27.575Z,9.30
2023-05-12T18:05:54.449Z,9.27
2023-05-12T18:08:21.851Z,9.90
2023-05-12T18:10:48.948Z,9.27
2023-05-12T18:13:16.085Z,9.90
2023-05-12T18:15:43.053Z,11.20
2023-05-12T18:18:11.107Z,10.00
2023-05-12T18:20:38.087Z,9.67
2023-05-12T18:23:04.967Z,8.53
2023-05-12T18:25:32.270Z,8.50
2023-05-12T18:27:59.082Z,8.23
2023-05-12T18:30:25.974Z,6.97
2023-05-12T18:32:52.953Z,7.57
2023-05-12T18:35:20.040Z,8.23
2023-05-12T18:37:47.524Z,8.10
2023-05-12T18:40:14.443Z,7.70
2023-05-12T18:42:41.283Z,7.77
2023-05-12T18:45:08.434Z,7.57
2023-05-12T18:47:35.221Z,8.37
2023-05-12T18:50:02.821Z,6.63
2023-05-12T18:52:29.499Z,6.63
2023-05-12T18:54:56.376Z,7.13
2023-05-12T18:57:23.162Z,6.30
2023-05-12T18:59:50.251Z,6.60
2023-05-12T19:02:17.744Z,7.17
2023-05-12T19:04:44.612Z,6.47
2023-05-12T19:07:15.300Z,7.13
2023-05-12T19:09:43.005Z,7.07
2023-05-12T19:12:11.847Z,7.70
2023-05-12T19:14:39.889Z,7.50
2023-05-12T19:17:07.684Z,6.97
2023-05-12T19:19:35.026Z,7.63
2023-05-12T19:22:04.103Z,6.97
2023-05-12T19:24:30.970Z,7.90
2023-05-12T19:26:58.022Z,7.80
2023-05-12T19:29:24.811Z,7.50
2023-05-12T19:31:53.199Z,8.03
2023-05-12T19:34:20.750Z,8.37
2023-05-12T19:36:48.041Z,8.07
2023-05-12T19:39:14.821Z,8.43
2023-05-12T19:41:41.682Z,7.93
2023-05-12T19:44:08.420Z,8.03
2023-05-12T19:46:35.399Z,7.97
2023-05-12T19:49:02.443Z,7.83
2023-05-12T19:51:29.364Z,8.10
2023-05-12T19:53:56.119Z,7.57
2023-05-12T19:56:22.927Z,8.30
2023-05-12T19:58:49.805Z,7.50
2023-05-12T20:01:16.947Z,7.77
2023-05-12T20:03:43.741Z,7.80
2023-05-12T20:06:10.862Z,7.20
2023-05-12T20:08:38.094Z,8.00
2023-05-12T20:11:04.891Z,8.27
2023-05-12T20:13:32.247Z,9.20
2023-05-12T20:15:59.206Z,8.77
2023-05-12T20:18:26.012Z,8.93
2023-05-12T20:20:52.767Z,9.33
2023-05-12T20:23:19.768Z,9.27
2023-05-12T20:25:47.202Z,9.10
2023-05-12T20:28:14.074Z,8.70
2023-05-12T20:30:41.049Z,9.43
2023-05-12T20:33:07.894Z,9.67
2023-05-12T20:35:35.148Z,10.40
2023-05-12T20:38:02.444Z,9.60
2023-05-12T20:40:29.574Z,10.60
2023-05-12T20:42:56.257Z,9.63
2023-05-12T20:45:23.194Z,9.50
2023-05-12T20:47:50.368Z,9.33
2023-05-12T20:50:17.921Z,9.60
2023-05-12T20:52:47.499Z,9.30
2023-05-12T20:55:14.257Z,9.93
2023-05-12T20:57:41.382Z,10.27
2023-05-12T21:00:13.802Z,9.13
2023-05-12T21:02:40.856Z,9.80
2023-05-12T21:05:07.853Z,9.50
2023-05-12T21:07:35.112Z,9.10
2023-05-12T21:10:04.010Z,9.97
2023-05-12T21:12:31.617Z,9.90
2023-05-12T21:14:58.692Z,10.53
2023-05-12T21:17:25.570Z,9.83
2023-05-12T21:19:52.567Z,9.10
2023-05-12T21:22:19.278Z,10.13
2023-05-12T21:24:45.951Z,9.63
2023-05-12T21:27:12.839Z,9.40
2023-05-12T21:29:40.307Z,9.80
2023-05-12T21:32:07.697Z,9.30
2023-05-12T21:34:36.064Z,10.17
2023-05-12T21:37:03.288Z,9.60
2023-05-12T21:39:30.034Z,10.30
2023-05-12T21:41:56.794Z,9.67
2023-05-12T21:44:23.518Z,10.40
2023-05-12T21:46:50.578Z,11.67
2023-05-12T21:49:17.285Z,10.40
2023-05-12T21:51:44.410Z,10.03
2023-05-12T21:54:12.300Z,11.30
2023-05-12T21:56:39.027Z,11.20
2023-05-12T21:59:05.871Z,11.70
2023-05-12T22:01:33.016Z,10.00
2023-05-12T22:04:00.102Z,9.90
2023-05-12T22:06:27.069Z,10.00
2023-05-12T22:08:54.258Z,10.77
2023-05-12T22:11:21.897Z,9.43
2023-05-12T22:13:49.704Z,10.23
2023-05-12T22:16:18.590Z,9.30
2023-05-12T22:18:47.094Z,10.00
2023-05-12T22:21:13.806Z,8.83
2023-05-12T22:23:42.189Z,10.20
2023-05-12T22:26:09.559Z,9.43
2023-05-12T22:28:36.586Z,10.50
2023-05-12T22:31:03.912Z,10.03
2023-05-12T22:33:31.620Z,10.17
2023-05-12T22:36:00.167Z,10.00
2023-05-12T22:38:27.843Z,10.90
2023-05-12T22:40:54.692Z,10.10
2023-05-12T22:43:21.593Z,11.17
2023-05-12T22:45:55.941Z,11.10
2023-05-12T22:48:23.117Z,10.47
2023-05-12T22:50:54.107Z,11.10
2023-05-12T22:53:21.203Z,11.03
2023-05-12T22:55:48.073Z,12.10
2023-05-12T22:58:15.122Z,11.70
2023-05-12T23:00:41.891Z,11.27
2023-05-12T23:03:08.915Z,12.03
2023-05-12T23:05:36.084Z,11.60
2023-05-12T23:08:06.025Z,13.10
2023-05-12T23:10:32.689Z,13.90
2023-05-12T23:12:59.510Z,13.70
2023-05-12T23:15:26.260Z,13.73
2023-05-12T23:17:53.010Z,13.53
2023-05-12T23:20:20.361Z,12.70
2023-05-12T23:22:47.227Z,15.40
2023-05-12T23:25:14.208Z,14.77
2023-05-12T23:27:41.019Z,14.83
2023-05-12T23:30:08.537Z,16.63
2023-05-12T23:32:35.493Z,14.80
2023-05-12T23:35:02.354Z,15.23
2023-05-12T23:37:29.098Z,15.30
2023-05-12T23:39:55.868Z,16.63
2023-05-12T23:42:22.687Z,15.00
2023-05-12T23:44:49.425Z,16.50
2023-05-12T23:47:16.143Z,16.83
2023-05-12T23:49:42.833Z,16.97
2023-05-12T23:52:09.542Z,17.13
2023-05-12T23:54:36.557Z,15.97
2023-05-12T23:57:03.330Z,16.37
2023-05-12T23:59:30.913Z,17.63
